»·PEaware :: AMF1 KCRQ-KLGB

AMF1 :: KCRQ-KLGB

FLIGHT INFORMATION

Flight Status: Arrived
Operator: Ameriflight
More flights by this operator :: More flights under this callsign
Pilot: Ryan M. (28536)
Aircraft: BEECH AIRCRAFT A90-E90 KING AIR
(BE9L)
More flights by this aircraft type
Origin: KCRQ McClellan-Palomar
United States
Destination: KLGB Long Beach
United States
More flights between these airports :: More routes between these airports
Route: MZB293 SLI148 SLI
File this flight plan on PilotEdge
Remarks:
Altitude:
(Current/Filed)
5,000ft
Speed:
(Current/Filed)
215kts
Departed: 15-May-20 12:02 PM
Arrived: 15-May-20 12:27 PM
Distance/Time
Traveled:
60nm/0:24
Distance/Time
To Go:
Arrived

Flight Plot

Page will automatically refresh every two minutes.


Map Options




Map Legend


Flown Route
Filed Route
Departure Airport
Arrival Airport
Navaid (VOR, NDB)
Fix

Horizontal Profiles

Position Reports

Time Latitude Longitude Heading Altitude Ground
Speed
15-May-20 11:41 33.126244 -117.284276 166 334ft 0kts
15-May-20 11:42 33.126244 -117.284276 166 334ft 0kts
15-May-20 11:43 33.126244 -117.284276 166 334ft 0kts
15-May-20 11:44 33.126244 -117.284276 166 334ft 0kts
15-May-20 11:45 33.126244 -117.284276 166 334ft 0kts
15-May-20 11:46 33.126271 -117.284179 8 334ft 0kts
15-May-20 11:48 33.126271 -117.284179 8 334ft 0kts
15-May-20 11:49 33.126271 -117.284179 8 334ft 0kts
15-May-20 11:50 33.126271 -117.284179 8 334ft 0kts
15-May-20 11:51 33.126271 -117.284179 8 334ft 0kts
15-May-20 11:52 33.126271 -117.284179 8 334ft 0kts
15-May-20 11:53 33.126355 -117.284165 7 334ft 0kts
15-May-20 11:54 33.126355 -117.284165 7 334ft 0kts
15-May-20 11:55 33.126355 -117.284165 7 334ft 0kts
15-May-20 11:56 33.126379 -117.284161 9 334ft 2kts
15-May-20 11:57 33.127669 -117.278672 79 334ft 26kts
15-May-20 11:58 33.128605 -117.272832 76 334ft 0kts
15-May-20 11:59 33.128605 -117.272832 76 334ft 0kts
15-May-20 12:00 33.128605 -117.272832 76 334ft 0kts
15-May-20 12:00 33.129214 -117.272696 310 334ft 11kts
15-May-20 12:02 33.125716 -117.293584 259 639ft 130kts
15-May-20 12:03 33.118957 -117.340338 258 1918ft 146kts
15-May-20 12:04 33.112619 -117.388856 260 2986ft 161kts
15-May-20 12:04 33.107414 -117.430993 260 4095ft 147kts
15-May-20 12:06 33.105629 -117.486252 298 5456ft 147kts
15-May-20 12:07 33.114652 -117.505654 297 5982ft 149kts
15-May-20 12:07 33.130053 -117.536271 299 7062ft 147kts
15-May-20 12:08 33.150494 -117.580714 300 7979ft 171kts
15-May-20 12:09 33.177777 -117.634077 301 8112ft 199kts
15-May-20 12:10 33.206680 -117.690297 303 8095ft 187kts
15-May-20 12:11 33.233909 -117.744592 299 7919ft 186kts
15-May-20 12:12 33.259391 -117.797550 300 7911ft 184kts
15-May-20 12:13 33.283902 -117.825629 332 8037ft 179kts
15-May-20 12:14 33.328985 -117.857072 329 7980ft 197kts
15-May-20 12:15 33.366739 -117.881416 332 7947ft 201kts
15-May-20 12:16 33.420849 -117.910131 342 6784ft 212kts
15-May-20 12:17 33.476693 -117.933619 339 5686ft 213kts
15-May-20 12:18 33.531113 -117.959064 339 5037ft 206kts
15-May-20 12:19 33.583182 -117.981441 341 4980ft 191kts
15-May-20 12:20 33.635283 -118.000635 350 4222ft 197kts
15-May-20 12:21 33.686973 -118.021102 339 3508ft 192kts
15-May-20 12:22 33.734339 -118.051777 314 2021ft 188kts
15-May-20 12:23 33.764053 -118.086953 315 1327ft 129kts
15-May-20 12:24 33.789434 -118.117477 313 698ft 133kts
15-May-20 12:25 33.814572 -118.147435 315 63ft 95kts
15-May-20 12:26 33.818549 -118.150900 86 63ft 0kts
15-May-20 12:27 33.818549 -118.150889 85 63ft 0kts
15-May-20 12:28 33.818550 -118.149525 90 63ft 12kts
15-May-20 12:29 33.818553 -118.146824 77 63ft 10kts
15-May-20 12:30 33.818588 -118.146541 82 63ft 0kts

Navigation Log

Ident Type
Flight plan parsing failed, navigation log unavailable